Latest Weather Observations for Hobart Airport

IDT60801

Issued at 7:02 am EST Wednesday 6 May 2015 (issued every 30 minutes, with the page automatically refreshed every 10 minutes)

About weather observations | Map of weather stations | Latest weather observations for TAS | Other Formats
Station Details ID: 094008 Name: HOBART AIRPORT Lat: -42.83 Lon: 147.50 Height: 4.0 m
Data from the previous 72 hours. | See also: Recent months at Hobart Airport
Date/Time
EST
Temp
°C
App
Temp
°C
Dew
Point
Rel
Hum
%
Delta-T
°C
Wind Press
QNH
hPa
Press
MSL
hPa
Rain
since 9 am
mm
Dir
 
Spd
km/h
Gust
km/h
Spd
kts
Gust
kts
06/05:30am 9.5 3.3 2.2 60 3.1 NNW 24 35 13 19 994.6 994.7 3.4
06/05:00am 9.6 3.1 0.6 53 3.7 NNW 24 39 13 21 993.9 994.0 3.4
06/04:05am 10.3 1.9 -2.8 40 4.9 WNW 32 50 17 27 992.7 992.8 3.4
06/04:00am 10.6 2.1 -3.0 38 5.2 WNW 32 46 17 25 992.6 992.7 3.4
06/03:30am 10.9 0.3 -2.1 40 5.0 WNW 44 70 24 38 992.0 992.0 3.4
06/03:24am 10.8 3.3 -1.6 42 4.8 WNW 28 57 15 31 992.2 992.2 3.4
06/03:00am 10.7 2.8 0.9 50 4.1 W 32 44 17 24 992.1 992.1 3.4
06/02:30am 11.3 -0.2 0.2 46 4.5 WNW 50 78 27 42 991.3 991.3 3.4
06/02:20am 11.4 2.0 0.0 45 4.6 WNW 39 65 21 35 991.2 991.2 3.4
06/02:01am 10.8 3.8 2.0 54 3.7 NW 28 46 15 25 990.8 990.8 3.4
06/02:00am 10.8 3.8 2.0 54 3.8 NW 28 46 15 25 991.0 991.0 3.4
06/01:40am 11.3 2.2 2.1 53 3.9 WNW 39 59 21 32 990.2 990.2 3.4
06/01:30am 11.3 3.0 2.3 54 3.9 WNW 35 50 19 27 990.2 990.2 3.4
06/01:01am 11.6 1.8 3.3 56 3.7 WNW 44 63 24 34 989.5 989.5 3.4
06/01:00am 11.6 2.0 3.6 58 3.6 WNW 43 57 23 31 989.5 989.5 3.4
06/12:30am 11.8 2.1 4.1 59 3.5 WNW 44 63 24 34 988.4 988.4 3.4
 
Date/Time
EST
Temp
°C
App
Temp
°C
Dew
Point
Rel
Hum
%
Delta-T
°C
Wind Press
QNH
hPa
Press
MSL
hPa
Rain
since 9 am
mm
Dir
 
Spd
km/h
Gust
km/h
Spd
kts
Gust
kts
05/11:31pm 12.4 0.5 4.1 57 3.7 WNW 56 74 30 40 986.4 986.4 3.4
05/11:30pm 12.5 0.4 4.0 56 3.8 WNW 57 74 31 40 986.4 986.4 3.4
05/11:00pm 13.2 1.3 4.1 54 4.2 WNW 56 78 30 42 986.4 986.4 3.4
05/10:53pm 13.3 2.1 4.0 53 4.2 WNW 52 78 28 42 986.0 986.0 3.4
05/10:51pm 13.4 3.3 3.8 52 4.3 WNW 46 78 25 42 986.0 986.0 3.4
05/10:30pm 13.5 5.5 4.0 52 4.3 NW 35 69 19 37 985.6 985.6 3.4
05/10:25pm 13.3 4.7 4.5 55 4.0 NW 39 56 21 30 985.6 985.6 3.4
05/10:22pm 13.1 3.8 4.8 57 3.8 NW 43 63 23 34 985.3 985.3 3.4
05/10:00pm 13.4 1.6 4.9 56 4.0 WNW 56 76 30 41 984.2 984.2 3.4
05/09:30pm 13.2 1.9 5.4 59 3.6 WNW 54 83 29 45 982.8 982.8 3.4
05/09:27pm 13.4 2.5 5.4 58 3.8 WNW 52 83 28 45 982.9 982.9 3.4
05/09:06pm 13.3 4.5 5.5 59 3.7 WNW 41 65 22 35 982.2 982.2 3.4
05/09:00pm 13.1 4.4 5.8 61 3.5 NW 41 56 22 30 982.0 982.0 3.4
05/08:30pm 12.3 1.2 6.5 67 2.8 NW 54 74 29 40 981.4 981.4 3.4
05/08:00pm 12.1 3.0 6.0 66 2.9 NW 43 61 23 33 981.1 981.1 3.4
05/07:30pm 11.4 3.3 5.4 66 2.8 NW 37 59 20 32 981.0 981.0 3.4
05/07:22pm 11.0 4.7 5.7 70 2.5 NW 28 46 15 25 981.0 981.0 3.4
05/07:00pm 10.8 3.7 6.4 74 2.1 NNW 33 50 18 27 980.6 980.6 3.4
05/06:44pm 11.0 3.2 6.6 74 2.1 NNW 37 56 20 30 980.7 980.7 2.4
05/06:30pm 11.8 4.1 5.2 64 3.0 NW 35 52 19 28 980.8 980.8 1.6
05/05:30pm 13.7 5.6 1.0 42 5.4 NNW 33 57 18 31 980.6 980.6 1.2
05/05:00pm 14.1 5.1 0.4 39 5.9 NNW 37 56 20 30 980.4 980.4 1.2
05/04:30pm 13.8 5.9 1.2 42 5.4 NNW 32 50 17 27 980.9 980.9 1.2
05/04:00pm 13.1 5.8 2.6 49 4.7 NNW 30 48 16 26 981.6 981.6 1.2
05/03:30pm 13.5 5.8 3.4 50 4.5 NNW 33 48 18 26 982.5 982.5 1.2
05/03:00pm 15.0 7.4 4.1 48 5.1 NNW 33 50 18 27 982.7 982.7 1.2
05/02:30pm 15.4 7.9 4.4 48 5.1 NNW 33 59 18 32 983.4 983.4 1.2
05/02:16pm 15.2 8.6 4.1 47 5.1 NNW 28 54 15 29 983.8 983.8 1.2
05/02:00pm 14.8 8.6 6.2 56 4.2 NW 28 39 15 21 983.7 983.7 1.2
05/01:30pm 13.5 6.9 6.0 60 3.6 NNW 30 56 16 30 984.0 984.0 1.2
05/01:07pm 14.0 6.6 6.7 61 3.5 NW 35 61 19 33 984.9 984.9 1.0
05/01:00pm 15.5 9.5 5.1 50 5.0 NW 26 35 14 19 985.0 985.0 1.0
05/12:30pm 14.3 9.8 7.0 61 3.6 NNW 20 35 11 19 985.5 985.5 1.0
05/12:00pm 13.0 9.0 8.4 73 2.3 NNW 19 30 10 16 985.7 985.7 1.0
05/11:30am 11.8 6.4 8.2 78 1.8 NNW 26 41 14 22 987.1 987.1 1.0
05/11:00am 12.6 6.9 8.2 74 2.2 WNW 28 37 15 20 988.0 988.0 0.8
05/10:46am 12.8 4.8 8.9 77 2.0 NW 41 61 22 33 987.7 987.7 0.8
05/10:38am 13.2 4.8 9.5 78 1.9 NNW 44 76 24 41 987.6 987.6 0.8
05/10:34am 12.4 5.3 9.5 82 1.5 NNW 37 76 20 41 986.6 986.6 0.4
05/10:30am 16.2 10.6 10.2 67 3.2 NNW 30 46 16 25 986.9 986.9 0.0
05/10:27am 16.9 11.4 9.1 60 4.0 N 28 46 15 25 986.9 986.9 0.0
05/10:00am 18.0 13.3 9.1 56 4.7 N 24 33 13 18 987.2 987.2 0.0
05/09:30am 17.1 11.3 9.5 61 4.0 NNW 30 46 16 25 987.7 987.7 0.0
05/09:00am 17.2 11.3 9.2 59 4.2 N 30 50 16 27 988.6 988.6 0.2
05/08:30am 16.0 9.6 9.3 64 3.5 N 33 65 18 35 989.2 989.2 0.2
05/08:00am 15.8 10.0 9.3 65 3.4 N 30 52 16 28 990.0 990.0 0.2
05/07:32am 15.7 9.3 9.4 66 3.3 N 33 54 18 29 990.4 990.4 0.2
05/07:30am 15.6 9.4 9.5 67 3.2 N 32 44 17 24 990.6 990.6 0.2
05/07:00am 15.2 9.4 9.4 68 3.0 N 30 48 16 26 991.5 991.5 0.2
05/06:58am 15.3 9.8 9.3 67 3.1 N 28 48 15 26 991.6 991.6 0.2
05/06:30am 15.4 10.3 9.2 66 3.2 N 26 41 14 22 992.0 992.0 0.2
05/06:00am 15.0 10.1 10.1 72 2.6 N 26 37 14 20 992.9 993.0 0.2
05/05:30am 15.3 10.5 10.2 71 2.7 N 26 39 14 21 993.5 993.6 0.2
05/05:00am 15.5 10.6 10.0 70 2.9 N 26 35 14 19 993.3 993.4 0.2
05/04:30am 15.6 11.1 9.9 69 3.0 N 24 33 13 18 994.5 994.6 0.2
05/04:00am 15.6 11.1 10.1 70 2.9 N 24 35 13 19 995.9 996.0 0.2
05/03:30am 16.4 12.0 9.1 62 3.8 N 22 33 12 18 996.7 996.8 0.2
05/03:00am 15.2 12.4 8.5 64 3.4 NNW 13 20 7 11 997.1 997.2 0.2
05/02:30am 15.6 12.2 7.6 59 4.0 N 15 22 8 12 998.6 998.6 0.2
05/02:00am 14.6 10.6 8.3 66 3.2 NNE 19 30 10 16 999.1 999.1 0.2
05/01:30am 13.0 10.0 7.5 69 2.7 NW 13 17 7 9 1000.2 1000.2 0.2
05/01:00am 13.6 10.9 9.1 74 2.3 N 13 20 7 11 1000.4 1000.4 0.2
05/12:30am 13.3 9.8 8.8 74 2.3 N 17 22 9 12 1000.3 1000.3 0.2
05/12:00am 13.8 9.8 8.2 69 2.8 N 19 26 10 14 1000.6 1000.6 0.2
 
Date/Time
EST
Temp
°C
App
Temp
°C
Dew
Point
Rel
Hum
%
Delta-T
°C
Wind Press
QNH
hPa
Press
MSL
hPa
Rain
since 9 am
mm
Dir
 
Spd
km/h
Gust
km/h
Spd
kts
Gust
kts
04/11:30pm 14.3 9.7 8.1 66 3.1 N 22 39 12 21 1001.2 1001.2 0.2
04/11:00pm 14.3 9.6 7.9 65 3.2 N 22 33 12 18 1002.2 1002.2 0.2
04/10:30pm 13.9 9.9 8.1 68 2.9 NNW 19 28 10 15 1002.7 1002.7 0.2
04/10:00pm 14.0 9.9 8.0 67 3.0 NNW 19 30 10 16 1003.3 1003.3 0.2
04/09:30pm 14.3 9.6 7.9 65 3.2 NNW 22 33 12 18 1004.1 1004.1 0.2
04/09:00pm 14.4 9.0 7.8 64 3.3 NNW 26 37 14 20 1004.5 1004.5 0.2
04/08:30pm 14.3 9.9 7.2 62 3.5 NNW 20 30 11 16 1004.5 1004.5 0.2
04/08:00pm 14.8 9.9 6.8 58 3.9 NNW 22 33 12 18 1005.2 1005.2 0.2
04/07:30pm 15.0 10.0 6.6 57 4.1 NNW 22 32 12 17 1005.6 1005.6 0.2
04/07:00pm 14.8 10.4 7.3 61 3.7 NNW 20 28 11 15 1006.2 1006.2 0.2
04/06:30pm 15.4 11.0 6.6 55 4.3 N 19 26 10 14 1005.8 1005.8 0.2
04/06:00pm 15.4 11.5 7.1 57 4.1 N 17 28 9 15 1006.1 1006.1 0.2
04/05:30pm 15.5 12.0 7.0 57 4.2 N 15 20 8 11 1006.6 1006.6 0.2
04/05:00pm 15.3 12.0 8.2 62 3.6 N 15 19 8 10 1006.8 1006.8 0.2
04/04:30pm 15.8 12.7 7.1 56 4.3 N 13 19 7 10 1006.8 1006.8 0.2
04/04:00pm 16.1 13.1 7.8 58 4.2 N 13 19 7 10 1007.8 1007.8 0.2
04/03:30pm 16.7 13.7 7.8 55 4.5 N 13 19 7 10 1008.1 1008.1 0.2
04/03:00pm 16.9 13.9 7.6 54 4.7 N 13 19 7 10 1008.4 1008.4 0.2
04/02:30pm 17.4 14.4 7.7 53 4.9 N 13 19 7 10 1008.7 1008.7 0.2
04/02:00pm 17.4 13.9 7.0 50 5.2 N 15 22 8 12 1009.1 1009.1 0.2
04/01:30pm 17.2 13.7 7.2 51 5.0 N 15 22 8 12 1009.4 1009.4 0.2
04/01:00pm 17.4 14.0 7.7 53 4.9 NNW 15 22 8 12 1010.1 1010.1 0.2
04/12:30pm 16.9 13.5 7.6 54 4.7 NW 15 19 8 10 1010.4 1010.4 0.0
04/12:00pm 17.1 13.3 7.6 53 4.8 NW 17 24 9 13 1011.4 1011.4 0.0
04/11:30am 16.3 12.8 7.3 55 4.5 NNW 15 20 8 11 1012.1 1012.1 0.0
04/11:00am 15.7 12.0 7.9 59 3.9 N 17 20 9 11 1012.5 1012.5 0.0
04/10:30am 14.7 12.0 8.8 68 3.0 NNW 13 19 7 10 1013.0 1013.0 0.0
04/10:00am 13.6 10.6 9.1 74 2.3 NNW 15 20 8 11 1013.5 1013.5 0.0
04/09:30am 13.0 10.8 9.3 78 1.9 NNW 11 15 6 8 1013.8 1013.8 0.0
04/09:00am 12.3 8.5 9.1 81 1.6 NNW 19 26 10 14 1014.2 1014.2 0.0
04/08:30am 12.0 9.0 9.4 84 1.3 NNW 15 19 8 10 1014.4 1014.4 0.0
04/08:00am 10.5 7.7 8.7 89 0.9 NNW 13 17 7 9 1014.5 1014.5 0.0
04/07:30am 8.3 5.3 7.5 95 0.4 NW 13 15 7 8 1014.3 1014.3 0.0
04/07:00am 7.9 4.4 7.0 94 0.4 WNW 15 19 8 10 1014.5 1014.5 0.0
04/06:30am 8.5 6.2 7.4 93 0.5 NW 9 11 5 6 1014.3 1014.3 0.0
04/06:00am 9.0 6.4 7.7 91 0.6 WNW 11 15 6 8 1014.7 1014.7 0.0
04/05:30am 9.5 7.3 8.0 90 0.7 NW 9 11 5 6 1014.5 1014.5 0.0
04/05:00am 10.2 7.8 8.6 90 0.8 NNW 11 15 6 8 1014.7 1014.7 0.0
04/04:30am 10.4 7.3 8.8 90 0.8 NW 15 19 8 10 1014.7 1014.7 0.0
04/04:00am 9.8 7.1 8.8 93 0.5 NW 13 15 7 8 1014.8 1014.8 0.0
04/03:30am 10.3 8.8 9.1 92 0.6 NNW 7 9 4 5 1014.8 1014.8 0.0
04/03:00am 11.0 9.2 9.4 90 0.8 N 9 11 5 6 1015.6 1015.6 0.0
04/02:30am 11.4 9.2 9.4 87 1.0 NNW 11 13 6 7 1015.8 1015.8 0.0
04/02:00am 10.9 9.4 9.1 89 0.9 NNW 7 9 4 5 1016.0 1016.0 0.0
04/01:30am 12.1 10.8 9.3 83 1.4 N 6 7 3 4 1016.2 1016.2 0.0
04/01:00am 13.7 12.5 9.6 76 2.1 NNE 6 9 3 5 1016.4 1016.4 0.0
04/12:30am 13.1 11.5 10.2 82 1.5 NNW 9 13 5 7 1016.8 1016.8 0.0
04/12:00am 13.1 11.5 10.2 82 1.5 N 9 11 5 6 1016.9 1016.9 0.0
 
Date/Time
EST
Temp
°C
App
Temp
°C
Dew
Point
Rel
Hum
%
Delta-T
°C
Wind Press
QNH
hPa
Press
MSL
hPa
Rain
since 9 am
mm
Dir
 
Spd
km/h
Gust
km/h
Spd
kts
Gust
kts
03/11:30pm 13.5 12.3 10.2 80 1.7 N 7 9 4 5 1017.1 1017.1 0.0
03/11:00pm 13.9 12.2 9.8 76 2.1 NNE 9 11 5 6 1017.3 1017.3 0.0
03/10:30pm 14.5 12.4 9.6 72 2.5 NNE 11 17 6 9 1017.4 1017.4 0.0
03/10:00pm 14.4 12.9 9.3 71 2.6 NE 7 11 4 6 1017.6 1017.6 0.0
03/09:30pm 13.8 13.8 9.9 77 2.0 CALM 0 0 0 0 1017.6 1017.6 0.0
03/09:00pm 14.0 14.0 9.9 76 2.1 CALM 0 4 0 2 1017.6 1017.6 0.0
03/08:30pm 14.0 12.9 10.6 80 1.8 NE 7 9 4 5 1017.4 1017.4 0.0
03/08:00pm 14.3 13.7 10.3 77 2.1 NNW 4 7 2 4 1017.4 1017.4 0.0
03/07:30pm 14.2 13.0 10.2 77 2.1 NE 7 11 4 6 1017.2 1017.2 0.0
03/07:00pm 14.3 14.5 10.5 78 2.0 CALM 0 6 0 3 1017.2 1017.2 0.0
03/06:30pm 14.5 12.7 9.4 71 2.6 SSE 9 11 5 6 1017.0 1017.0 0.0
03/06:00pm 14.9 13.4 9.0 68 3.0 SSE 7 9 4 5 1016.9 1016.9 0.0
03/05:30pm 15.3 13.8 9.0 66 3.2 SE 7 9 4 5 1016.4 1016.4 0.0
03/05:00pm 15.9 13.4 8.4 61 3.8 S 11 13 6 7 1016.4 1016.4 0.0
03/04:30pm 16.4 13.9 8.1 58 4.2 SSE 11 13 6 7 1016.2 1016.2 0.0
03/04:00pm 17.5 15.6 7.6 52 5.0 WSW 7 11 4 6 1016.0 1016.0 0.0
03/03:30pm 17.8 14.5 6.2 46 5.7 WNW 13 17 7 9 1016.0 1016.0 0.0
03/03:00pm 18.4 15.0 6.0 44 6.1 W 13 20 7 11 1015.8 1015.8 0.0
03/02:30pm 18.2 13.5 6.0 44 6.0 W 20 28 11 15 1015.6 1015.6 0.0
03/02:00pm 18.6 14.1 6.3 44 6.1 W 19 28 10 15 1015.6 1015.6 0.0
03/01:30pm 18.1 13.7 6.6 47 5.7 NW 19 28 10 15 1015.5 1015.5 0.0
03/01:00pm 18.1 14.0 6.4 46 5.8 NW 17 24 9 13 1015.5 1015.5 0.0
03/12:30pm 17.8 14.0 7.5 51 5.2 NNW 17 24 9 13 1015.5 1015.5 0.0
03/12:00pm 18.1 13.9 7.6 50 5.3 NW 19 26 10 14 1015.6 1015.6 0.0
03/11:30am 16.9 12.3 6.5 50 5.1 NW 20 28 11 15 1015.8 1015.8 0.0
03/11:00am 16.7 12.2 6.8 52 4.9 NW 20 28 11 15 1015.9 1015.9 0.0
03/10:30am 15.5 9.9 7.0 57 4.2 NW 26 32 14 17 1015.6 1015.6 0.0
03/10:00am 15.6 11.7 7.1 57 4.2 NNW 17 28 9 15 1015.8 1015.8 0.0
03/09:30am 14.6 9.6 6.5 58 3.9 NW 22 28 12 15 1015.8 1015.8 0.0
03/09:00am 14.0 10.8 7.0 62 3.4 NNE 13 20 7 11 1016.0 1016.0 6.0
03/08:30am 13.3 10.0 6.6 64 3.2 NNW 13 24 7 13 1015.8 1015.8 6.0
03/08:00am 12.8 8.8 6.5 65 3.0 NNW 17 26 9 14 1015.5 1015.5 6.0
03/07:30am 11.9 9.3 6.2 68 2.7 NNW 9 13 5 7 1015.2 1015.2 6.0

Other Formats:

Comma delimited format used in spreadsheet applications
http://www.bom.gov.au/fwo/IDT60801/IDT60801.94975.axf

JavaScript Object Notation format (JSON) in row-major order
http://www.bom.gov.au/fwo/IDT60801/IDT60801.94975.json